sensor_id;sensor_type;location;lat;lon;timestamp;pressure;altitude;pressure_sealevel;temperature;humidity
19236;BME280;9752;54.270;12.470;2023-02-15T00:00:32;103589.41;;;-1.62;100.00
19236;BME280;9752;54.270;12.470;2023-02-15T00:05:33;103590.78;;;-1.58;100.00
19236;BME280;9752;54.270;12.470;2023-02-15T00:10:35;103592.44;;;-1.59;100.00
19236;BME280;9752;54.270;12.470;2023-02-15T00:15:39;103579.00;;;-1.69;100.00
19236;BME280;9752;54.270;12.470;2023-02-15T00:20:40;103580.63;;;-1.52;100.00
19236;BME280;9752;54.270;12.470;2023-02-15T00:25:42;103579.25;;;-1.39;100.00
19236;BME280;9752;54.270;12.470;2023-02-15T00:30:45;103581.53;;;-1.69;100.00
19236;BME280;9752;54.270;12.470;2023-02-15T00:35:47;103579.63;;;-1.81;100.00
19236;BME280;9752;54.270;12.470;2023-02-15T00:40:52;103579.38;;;-1.88;100.00
19236;BME280;9752;54.270;12.470;2023-02-15T00:45:55;103575.44;;;-1.86;100.00
19236;BME280;9752;54.270;12.470;2023-02-15T00:50:58;103567.81;;;-1.86;100.00
19236;BME280;9752;54.270;12.470;2023-02-15T00:56:00;103555.75;;;-1.99;100.00
19236;BME280;9752;54.270;12.470;2023-02-15T01:01:05;103552.78;;;-1.85;100.00
19236;BME280;9752;54.270;12.470;2023-02-15T01:06:07;103557.44;;;-1.71;100.00
19236;BME280;9752;54.270;12.470;2023-02-15T01:11:12;103566.25;;;-1.74;100.00
19236;BME280;9752;54.270;12.470;2023-02-15T01:16:16;103557.94;;;-1.68;100.00
19236;BME280;9752;54.270;12.470;2023-02-15T01:21:19;103548.66;;;-1.73;100.00
19236;BME280;9752;54.270;12.470;2023-02-15T01:26:22;103542.63;;;-1.79;100.00
19236;BME280;9752;54.270;12.470;2023-02-15T01:31:25;103548.19;;;-1.82;100.00
19236;BME280;9752;54.270;12.470;2023-02-15T01:36:26;103536.63;;;-1.74;100.00
19236;BME280;9752;54.270;12.470;2023-02-15T01:41:28;103542.63;;;-1.79;100.00
19236;BME280;9752;54.270;12.470;2023-02-15T01:46:35;103539.81;;;-1.86;100.00
19236;BME280;9752;54.270;12.470;2023-02-15T01:51:39;103536.34;;;-1.92;100.00
19236;BME280;9752;54.270;12.470;2023-02-15T01:56:43;103532.66;;;-1.89;100.00
19236;BME280;9752;54.270;12.470;2023-02-15T02:01:46;103529.44;;;-1.82;100.00
19236;BME280;9752;54.270;12.470;2023-02-15T02:06:48;103517.41;;;-1.83;100.00
19236;BME280;9752;54.270;12.470;2023-02-15T02:11:51;103523.41;;;-1.88;100.00
19236;BME280;9752;54.270;12.470;2023-02-15T02:16:58;103519.94;;;-1.89;100.00
19236;BME280;9752;54.270;12.470;2023-02-15T02:27:34;103514.16;;;-1.88;100.00
19236;BME280;9752;54.270;12.470;2023-02-15T02:38:19;103492.59;;;-2.07;100.00
19236;BME280;9752;54.270;12.470;2023-02-15T02:43:29;103491.66;;;-2.19;100.00
19236;BME280;9752;54.270;12.470;2023-02-15T02:48:34;103485.13;;;-2.28;100.00
19236;BME280;9752;54.270;12.470;2023-02-15T02:53:37;103477.28;;;-2.35;100.00
19236;BME280;9752;54.270;12.470;2023-02-15T02:58:42;103477.31;;;-2.24;100.00
19236;BME280;9752;54.270;12.470;2023-02-15T03:03:48;103467.34;;;-2.22;100.00
19236;BME280;9752;54.270;12.470;2023-02-15T03:08:58;103468.34;;;-2.10;100.00
19236;BME280;9752;54.270;12.470;2023-02-15T03:14:03;103457.22;;;-2.17;100.00
19236;BME280;9752;54.270;12.470;2023-02-15T03:19:08;103465.81;;;-1.99;100.00
19236;BME280;9752;54.270;12.470;2023-02-15T03:24:14;103463.06;;;-1.89;100.00
19236;BME280;9752;54.270;12.470;2023-02-15T03:29:20;103451.94;;;-1.96;100.00
19236;BME280;9752;54.270;12.470;2023-02-15T03:34:25;103451.25;;;-1.94;100.00
19236;BME280;9752;54.270;12.470;2023-02-15T03:39:32;103445.69;;;-1.98;100.00
19236;BME280;9752;54.270;12.470;2023-02-15T03:44:42;103438.03;;;-2.09;100.00
19236;BME280;9752;54.270;12.470;2023-02-15T03:49:53;103430.66;;;-1.96;100.00
19236;BME280;9752;54.270;12.470;2023-02-15T03:54:57;103429.28;;;-2.00;100.00
19236;BME280;9752;54.270;12.470;2023-02-15T04:00:00;103437.16;;;-1.92;100.00
19236;BME280;9752;54.270;12.470;2023-02-15T04:05:20;103444.53;;;-1.94;100.00
19236;BME280;9752;54.270;12.470;2023-02-15T04:10:23;103428.84;;;-1.97;100.00
19236;BME280;9752;54.270;12.470;2023-02-15T04:15:42;103423.97;;;-2.12;100.00
19236;BME280;9752;54.270;12.470;2023-02-15T04:21:01;103416.34;;;-2.12;100.00
19236;BME280;9752;54.270;12.470;2023-02-15T04:26:22;103414.94;;;-2.16;100.00
19236;BME280;9752;54.270;12.470;2023-02-15T04:31:24;103397.56;;;-2.24;100.00
19236;BME280;9752;54.270;12.470;2023-02-15T04:36:25;103387.84;;;-2.32;100.00
19236;BME280;9752;54.270;12.470;2023-02-15T04:41:28;103381.38;;;-2.30;100.00
19236;BME280;9752;54.270;12.470;2023-02-15T04:46:30;103375.38;;;-2.37;100.00
19236;BME280;9752;54.270;12.470;2023-02-15T04:51:32;103371.88;;;-2.48;100.00
19236;BME280;9752;54.270;12.470;2023-02-15T04:56:35;103368.16;;;-2.56;100.00
19236;BME280;9752;54.270;12.470;2023-02-15T05:01:38;103377.38;;;-2.57;100.00
19236;BME280;9752;54.270;12.470;2023-02-15T05:06:40;103371.81;;;-2.65;100.00
19236;BME280;9752;54.270;12.470;2023-02-15T05:11:43;103367.16;;;-2.73;100.00
19236;BME280;9752;54.270;12.470;2023-02-15T05:16:44;103364.38;;;-2.81;100.00
19236;BME280;9752;54.270;12.470;2023-02-15T05:21:46;103354.44;;;-2.79;100.00
19236;BME280;9752;54.270;12.470;2023-02-15T05:26:49;103361.41;;;-2.72;100.00
19236;BME280;9752;54.270;12.470;2023-02-15T05:32:08;103361.69;;;-2.60;100.00
19236;BME280;9752;54.270;12.470;2023-02-15T05:37:10;103361.69;;;-2.54;100.00
19236;BME280;9752;54.270;12.470;2023-02-15T05:42:13;103362.13;;;-2.62;100.00
19236;BME280;9752;54.270;12.470;2023-02-15T05:47:15;103354.50;;;-2.62;100.00
19236;BME280;9752;54.270;12.470;2023-02-15T05:52:17;103357.31;;;-2.44;100.00
19236;BME280;9752;54.270;12.470;2023-02-15T05:57:20;103357.13;;;-2.23;100.00
19236;BME280;9752;54.270;12.470;2023-02-15T06:02:22;103358.06;;;-2.11;100.00
19236;BME280;9752;54.270;12.470;2023-02-15T06:07:23;103357.16;;;-2.00;100.00
19236;BME280;9752;54.270;12.470;2023-02-15T06:12:26;103356.91;;;-1.96;100.00
19236;BME280;9752;54.270;12.470;2023-02-15T06:17:28;103340.03;;;-1.96;100.00
19236;BME280;9752;54.270;12.470;2023-02-15T06:22:30;103340.50;;;-1.87;100.00
19236;BME280;9752;54.270;12.470;2023-02-15T06:27:33;103341.88;;;-1.83;100.00
19236;BME280;9752;54.270;12.470;2023-02-15T06:32:35;103340.03;;;-1.84;100.00
19236;BME280;9752;54.270;12.470;2023-02-15T06:37:37;103344.19;;;-1.85;100.00
19236;BME280;9752;54.270;12.470;2023-02-15T06:42:41;103348.38;;;-1.85;100.00
19236;BME280;9752;54.270;12.470;2023-02-15T06:47:43;103351.59;;;-1.86;100.00
19236;BME280;9752;54.270;12.470;2023-02-15T06:52:44;103355.09;;;-1.86;100.00
19236;BME280;9752;54.270;12.470;2023-02-15T06:57:47;103350.66;;;-1.81;100.00
19236;BME280;9752;54.270;12.470;2023-02-15T07:02:53;103353.22;;;-1.81;100.00
19236;BME280;9752;54.270;12.470;2023-02-15T07:07:56;103351.59;;;-1.75;100.00
19236;BME280;9752;54.270;12.470;2023-02-15T07:12:59;103359.91;;;-1.65;100.00
19236;BME280;9752;54.270;12.470;2023-02-15T07:18:01;103354.81;;;-1.53;100.00
19236;BME280;9752;54.270;12.470;2023-02-15T07:23:04;103353.16;;;-1.36;100.00
19236;BME280;9752;54.270;12.470;2023-02-15T07:28:07;103366.50;;;-1.14;100.00
19236;BME280;9752;54.270;12.470;2023-02-15T07:33:09;103367.84;;;-0.94;100.00
19236;BME280;9752;54.270;12.470;2023-02-15T07:38:29;103381.66;;;-0.75;100.00
19236;BME280;9752;54.270;12.470;2023-02-15T07:43:34;103379.91;;;-0.52;100.00
19236;BME280;9752;54.270;12.470;2023-02-15T07:48:37;103381.16;;;-0.26;100.00
19236;BME280;9752;54.270;12.470;2023-02-15T07:53:39;103369.72;;;-0.11;100.00
19236;BME280;9752;54.270;12.470;2023-02-15T07:58:42;103371.31;;;-0.06;100.00
19236;BME280;9752;54.270;12.470;2023-02-15T08:03:53;103366.06;;;0.06;100.00
19236;BME280;9752;54.270;12.470;2023-02-15T08:08:54;103356.50;;;0.16;100.00
19236;BME280;9752;54.270;12.470;2023-02-15T08:13:59;103360.78;;;0.28;100.00
19236;BME280;9752;54.270;12.470;2023-02-15T08:19:05;103364.13;;;0.46;100.00
19236;BME280;9752;54.270;12.470;2023-02-15T08:24:08;103354.47;;;0.80;100.00
19236;BME280;9752;54.270;12.470;2023-02-15T08:29:12;103357.03;;;1.17;100.00
19236;BME280;9752;54.270;12.470;2023-02-15T08:34:17;103349.81;;;1.39;100.00
19236;BME280;9752;54.270;12.470;2023-02-15T08:39:19;103357.78;;;1.66;100.00
19236;BME280;9752;54.270;12.470;2023-02-15T08:44:23;103342.78;;;1.87;100.00
19236;BME280;9752;54.270;12.470;2023-02-15T08:49:24;103346.28;;;2.01;100.00
19236;BME280;9752;54.270;12.470;2023-02-15T08:54:26;103344.38;;;2.18;100.00
19236;BME280;9752;54.270;12.470;2023-02-15T08:59:29;103317.94;;;1.86;100.00
19236;BME280;9752;54.270;12.470;2023-02-15T09:04:31;103325.66;;;2.25;100.00
19236;BME280;9752;54.270;12.470;2023-02-15T09:09:33;103327.28;;;2.24;100.00
19236;BME280;9752;54.270;12.470;2023-02-15T09:14:36;103319.41;;;2.36;100.00
19236;BME280;9752;54.270;12.470;2023-02-15T09:19:37;103310.66;;;2.41;100.00
19236;BME280;9752;54.270;12.470;2023-02-15T09:24:39;103304.31;;;2.57;100.00
19236;BME280;9752;54.270;12.470;2023-02-15T09:29:42;103296.97;;;2.86;100.00
19236;BME280;9752;54.270;12.470;2023-02-15T09:34:44;103284.25;;;2.93;100.00
19236;BME280;9752;54.270;12.470;2023-02-15T09:39:46;103269.66;;;2.99;100.00
19236;BME280;9752;54.270;12.470;2023-02-15T09:45:04;103257.88;;;3.27;100.00
19236;BME280;9752;54.270;12.470;2023-02-15T09:50:15;103252.44;;;3.58;100.00
19236;BME280;9752;54.270;12.470;2023-02-15T09:55:32;103241.00;;;3.69;100.00
19236;BME280;9752;54.270;12.470;2023-02-15T10:00:46;103219.50;;;3.41;100.00
19236;BME280;9752;54.270;12.470;2023-02-15T10:06:01;103213.47;;;3.68;100.00
19236;BME280;9752;54.270;12.470;2023-02-15T10:11:12;103194.16;;;3.57;100.00
19236;BME280;9752;54.270;12.470;2023-02-15T10:16:40;103196.72;;;3.84;100.00
19236;BME280;9752;54.270;12.470;2023-02-15T10:21:55;103185.00;;;3.86;100.00
19236;BME280;9752;54.270;12.470;2023-02-15T10:27:07;103163.91;;;4.23;100.00
19236;BME280;9752;54.270;12.470;2023-02-15T10:32:21;103156.56;;;4.19;100.00
19236;BME280;9752;54.270;12.470;2023-02-15T10:37:45;103131.63;;;4.25;100.00
19236;BME280;9752;54.270;12.470;2023-02-15T10:43:04;103115.84;;;4.44;100.00
19236;BME280;9752;54.270;12.470;2023-02-15T10:48:21;103099.41;;;4.71;100.00
19236;BME280;9752;54.270;12.470;2023-02-15T10:53:31;103080.28;;;4.68;100.00
19236;BME280;9752;54.270;12.470;2023-02-15T10:58:49;103065.22;;;5.00;100.00
19236;BME280;9752;54.270;12.470;2023-02-15T11:04:09;103061.69;;;5.36;100.00
19236;BME280;9752;54.270;12.470;2023-02-15T11:09:18;103047.03;;;5.20;100.00
19236;BME280;9752;54.270;12.470;2023-02-15T11:14:30;103016.56;;;5.54;100.00
19236;BME280;9752;54.270;12.470;2023-02-15T11:19:42;102996.56;;;5.51;100.00
19236;BME280;9752;54.270;12.470;2023-02-15T11:24:46;102977.22;;;5.62;100.00
19236;BME280;9752;54.270;12.470;2023-02-15T11:29:56;102938.38;;;5.30;100.00
19236;BME280;9752;54.270;12.470;2023-02-15T11:35:04;102931.06;;;5.63;100.00
19236;BME280;9752;54.270;12.470;2023-02-15T11:40:19;102922.34;;;5.70;100.00
19236;BME280;9752;54.270;12.470;2023-02-15T11:45:26;102900.59;;;5.82;100.00
19236;BME280;9752;54.270;12.470;2023-02-15T11:50:31;102893.59;;;5.81;100.00
19236;BME280;9752;54.270;12.470;2023-02-15T11:55:33;102867.22;;;5.31;100.00
19236;BME280;9752;54.270;12.470;2023-02-15T12:00:38;102852.66;;;5.68;100.00
19236;BME280;9752;54.270;12.470;2023-02-15T12:05:45;102834.44;;;5.97;100.00
19236;BME280;9752;54.270;12.470;2023-02-15T12:10:57;102825.75;;;6.20;100.00
19236;BME280;9752;54.270;12.470;2023-02-15T12:16:06;102822.97;;;5.79;100.00
19236;BME280;9752;54.270;12.470;2023-02-15T12:21:11;102803.16;;;5.18;100.00
19236;BME280;9752;54.270;12.470;2023-02-15T12:26:14;102794.56;;;5.10;100.00
19236;BME280;9752;54.270;12.470;2023-02-15T12:31:20;102774.84;;;4.87;100.00
19236;BME280;9752;54.270;12.470;2023-02-15T12:36:29;102780.19;;;5.19;100.00
19236;BME280;9752;54.270;12.470;2023-02-15T12:41:31;102771.84;;;5.29;100.00
19236;BME280;9752;54.270;12.470;2023-02-15T12:46:33;102769.34;;;5.22;100.00
19236;BME280;9752;54.270;12.470;2023-02-15T12:51:48;102762.31;;;5.51;100.00
19236;BME280;9752;54.270;12.470;2023-02-15T12:56:51;102767.75;;;5.38;100.00
19236;BME280;9752;54.270;12.470;2023-02-15T13:01:53;102763.81;;;5.26;100.00
19236;BME280;9752;54.270;12.470;2023-02-15T13:06:58;102768.97;;;5.49;100.00
19236;BME280;9752;54.270;12.470;2023-02-15T13:12:10;102752.44;;;5.24;100.00
19236;BME280;9752;54.270;12.470;2023-02-15T13:17:15;102751.56;;;5.39;100.00
19236;BME280;9752;54.270;12.470;2023-02-15T13:22:21;102739.88;;;5.50;100.00
19236;BME280;9752;54.270;12.470;2023-02-15T13:27:28;102727.97;;;5.51;100.00
19236;BME280;9752;54.270;12.470;2023-02-15T13:32:38;102723.53;;;5.50;100.00
19236;BME280;9752;54.270;12.470;2023-02-15T13:37:59;102719.59;;;5.60;100.00
19236;BME280;9752;54.270;12.470;2023-02-15T13:43:05;102709.66;;;5.63;100.00
19236;BME280;9752;54.270;12.470;2023-02-15T13:48:18;102710.22;;;5.38;100.00
19236;BME280;9752;54.270;12.470;2023-02-15T13:53:41;102705.66;;;5.35;100.00
19236;BME280;9752;54.270;12.470;2023-02-15T13:59:16;102704.31;;;5.62;100.00
19236;BME280;9752;54.270;12.470;2023-02-15T14:04:32;102711.50;;;5.18;100.00
19236;BME280;9752;54.270;12.470;2023-02-15T14:09:46;102710.19;;;5.22;100.00
19236;BME280;9752;54.270;12.470;2023-02-15T14:20:21;102700.59;;;4.98;100.00
19236;BME280;9752;54.270;12.470;2023-02-15T14:25:28;102699.41;;;4.80;100.00
19236;BME280;9752;54.270;12.470;2023-02-15T14:30:36;102704.53;;;4.87;100.00
19236;BME280;9752;54.270;12.470;2023-02-15T14:35:38;102701.94;;;4.87;100.00
19236;BME280;9752;54.270;12.470;2023-02-15T14:40:50;102710.34;;;4.93;100.00
19236;BME280;9752;54.270;12.470;2023-02-15T14:46:08;102715.88;;;4.89;100.00
19236;BME280;9752;54.270;12.470;2023-02-15T14:57:21;102725.78;;;4.93;100.00
19236;BME280;9752;54.270;12.470;2023-02-15T15:02:29;102711.91;;;4.84;100.00
19236;BME280;9752;54.270;12.470;2023-02-15T15:07:43;102707.22;;;4.65;100.00
19236;BME280;9752;54.270;12.470;2023-02-15T15:12:47;102701.63;;;4.46;100.00
19236;BME280;9752;54.270;12.470;2023-02-15T15:17:55;102711.16;;;4.47;100.00
19236;BME280;9752;54.270;12.470;2023-02-15T15:28:57;102717.75;;;4.53;100.00
19236;BME280;9752;54.270;12.470;2023-02-15T15:34:39;102719.63;;;4.46;100.00
19236;BME280;9752;54.270;12.470;2023-02-15T15:45:47;102715.28;;;4.31;100.00
19236;BME280;9752;54.270;12.470;2023-02-15T15:50:52;102718.91;;;4.40;100.00
19236;BME280;9752;54.270;12.470;2023-02-15T15:55:58;102727.06;;;4.15;100.00
19236;BME280;9752;54.270;12.470;2023-02-15T16:01:07;102724.75;;;3.87;100.00
19236;BME280;9752;54.270;12.470;2023-02-15T16:06:12;102734.25;;;3.96;100.00
19236;BME280;9752;54.270;12.470;2023-02-15T16:11:19;102737.19;;;3.99;100.00
19236;BME280;9752;54.270;12.470;2023-02-15T16:16:25;102748.00;;;3.96;100.00
19236;BME280;9752;54.270;12.470;2023-02-15T16:21:30;102745.28;;;3.95;100.00
19236;BME280;9752;54.270;12.470;2023-02-15T16:26:55;102740.47;;;3.98;100.00
19236;BME280;9752;54.270;12.470;2023-02-15T16:32:03;102741.94;;;4.03;100.00
19236;BME280;9752;54.270;12.470;2023-02-15T16:37:13;102750.38;;;4.02;100.00
19236;BME280;9752;54.270;12.470;2023-02-15T16:42:16;102760.81;;;4.10;100.00
19236;BME280;9752;54.270;12.470;2023-02-15T16:47:22;102769.25;;;4.09;100.00
19236;BME280;9752;54.270;12.470;2023-02-15T16:52:26;102774.22;;;4.01;100.00
19236;BME280;9752;54.270;12.470;2023-02-15T16:57:32;102770.19;;;3.88;100.00
19236;BME280;9752;54.270;12.470;2023-02-15T17:02:36;102780.66;;;3.90;100.00
19236;BME280;9752;54.270;12.470;2023-02-15T17:07:39;102775.91;;;3.79;100.00
19236;BME280;9752;54.270;12.470;2023-02-15T17:12:45;102773.31;;;3.71;100.00
19236;BME280;9752;54.270;12.470;2023-02-15T17:17:48;102777.56;;;3.71;100.00
19236;BME280;9752;54.270;12.470;2023-02-15T17:22:50;102771.31;;;3.69;100.00
19236;BME280;9752;54.270;12.470;2023-02-15T17:27:55;102776.09;;;3.73;100.00
19236;BME280;9752;54.270;12.470;2023-02-15T17:33:01;102772.44;;;3.57;100.00
19236;BME280;9752;54.270;12.470;2023-02-15T17:38:06;102774.63;;;3.61;100.00
19236;BME280;9752;54.270;12.470;2023-02-15T17:43:08;102783.78;;;3.66;100.00
19236;BME280;9752;54.270;12.470;2023-02-15T17:48:18;102773.88;;;3.55;100.00
19236;BME280;9752;54.270;12.470;2023-02-15T17:53:23;102774.25;;;3.50;100.00
19236;BME280;9752;54.270;12.470;2023-02-15T17:58:25;102783.38;;;3.41;100.00
19236;BME280;9752;54.270;12.470;2023-02-15T18:03:38;102776.81;;;3.36;100.00
19236;BME280;9752;54.270;12.470;2023-02-15T18:08:57;102769.47;;;3.32;100.00
19236;BME280;9752;54.270;12.470;2023-02-15T18:14:17;102759.22;;;3.32;100.00
19236;BME280;9752;54.270;12.470;2023-02-15T18:19:21;102772.56;;;3.29;100.00
19236;BME280;9752;54.270;12.470;2023-02-15T18:24:25;102759.91;;;3.09;100.00
19236;BME280;9752;54.270;12.470;2023-02-15T18:29:27;102771.38;;;2.91;100.00
19236;BME280;9752;54.270;12.470;2023-02-15T18:34:32;102787.50;;;2.90;100.00
19236;BME280;9752;54.270;12.470;2023-02-15T18:39:36;102793.94;;;2.94;100.00
19236;BME280;9752;54.270;12.470;2023-02-15T18:44:39;102792.47;;;2.96;100.00
19236;BME280;9752;54.270;12.470;2023-02-15T18:49:42;102795.38;;;2.92;100.00
19236;BME280;9752;54.270;12.470;2023-02-15T18:54:44;102795.38;;;2.92;100.00
19236;BME280;9752;54.270;12.470;2023-02-15T18:59:46;102791.69;;;2.83;100.00
19236;BME280;9752;54.270;12.470;2023-02-15T19:04:49;102798.84;;;2.85;100.00
19236;BME280;9752;54.270;12.470;2023-02-15T19:09:54;102795.69;;;2.81;100.00
19236;BME280;9752;54.270;12.470;2023-02-15T19:14:56;102794.59;;;2.79;100.00
19236;BME280;9752;54.270;12.470;2023-02-15T19:19:59;102794.94;;;2.74;100.00
19236;BME280;9752;54.270;12.470;2023-02-15T19:25:03;102797.47;;;2.67;100.00
19236;BME280;9752;54.270;12.470;2023-02-15T19:30:13;102804.75;;;2.57;100.00
19236;BME280;9752;54.270;12.470;2023-02-15T19:35:20;102793.78;;;2.58;100.00
19236;BME280;9752;54.270;12.470;2023-02-15T19:40:24;102796.34;;;2.58;100.00
19236;BME280;9752;54.270;12.470;2023-02-15T19:45:28;102796.88;;;2.56;100.00
19236;BME280;9752;54.270;12.470;2023-02-15T19:50:33;102796.66;;;2.47;100.00
19236;BME280;9752;54.270;12.470;2023-02-15T19:55:35;102792.94;;;2.38;100.00
19236;BME280;9752;54.270;12.470;2023-02-15T20:00:38;102800.25;;;2.34;100.00
19236;BME280;9752;54.270;12.470;2023-02-15T20:05:42;102785.31;;;2.45;100.00
19236;BME280;9752;54.270;12.470;2023-02-15T20:10:44;102795.50;;;2.38;100.00
19236;BME280;9752;54.270;12.470;2023-02-15T20:15:47;102797.31;;;2.39;100.00
19236;BME280;9752;54.270;12.470;2023-02-15T20:20:52;102812.75;;;2.46;100.00
19236;BME280;9752;54.270;12.470;2023-02-15T20:25:56;102806.91;;;2.47;100.00
19236;BME280;9752;54.270;12.470;2023-02-15T20:30:58;102805.59;;;2.43;100.00
19236;BME280;9752;54.270;12.470;2023-02-15T20:36:02;102805.75;;;2.38;100.00
19236;BME280;9752;54.270;12.470;2023-02-15T20:41:04;102788.19;;;2.41;100.00
19236;BME280;9752;54.270;12.470;2023-02-15T20:46:23;102785.47;;;2.39;100.00
19236;BME280;9752;54.270;12.470;2023-02-15T20:51:26;102792.75;;;2.36;100.00
19236;BME280;9752;54.270;12.470;2023-02-15T20:56:28;102787.59;;;2.29;100.00
19236;BME280;9752;54.270;12.470;2023-02-15T21:01:30;102775.22;;;2.12;100.00
19236;BME280;9752;54.270;12.470;2023-02-15T21:06:33;102781.78;;;2.10;100.00
19236;BME280;9752;54.270;12.470;2023-02-15T21:11:35;102780.00;;;2.16;100.00
19236;BME280;9752;54.270;12.470;2023-02-15T21:16:37;102782.19;;;2.13;100.00
19236;BME280;9752;54.270;12.470;2023-02-15T21:21:40;102784.00;;;2.14;100.00
19236;BME280;9752;54.270;12.470;2023-02-15T21:26:44;102793.13;;;2.12;100.00
19236;BME280;9752;54.270;12.470;2023-02-15T21:31:46;102782.41;;;2.14;100.00
19236;BME280;9752;54.270;12.470;2023-02-15T21:36:49;102780.75;;;2.15;100.00
19236;BME280;9752;54.270;12.470;2023-02-15T21:41:52;102785.53;;;2.19;100.00
19236;BME280;9752;54.270;12.470;2023-02-15T21:47:18;102782.56;;;2.16;100.00
19236;BME280;9752;54.270;12.470;2023-02-15T21:52:47;102774.47;;;2.06;100.00
19236;BME280;9752;54.270;12.470;2023-02-15T21:57:48;102779.19;;;2.03;100.00
19236;BME280;9752;54.270;12.470;2023-02-15T22:02:52;102775.00;;;2.03;100.00
19236;BME280;9752;54.270;12.470;2023-02-15T22:07:55;102771.84;;;1.99;100.00
19236;BME280;9752;54.270;12.470;2023-02-15T22:12:59;102759.75;;;1.90;100.00
19236;BME280;9752;54.270;12.470;2023-02-15T22:18:01;102759.28;;;1.80;100.00
19236;BME280;9752;54.270;12.470;2023-02-15T22:23:05;102772.47;;;1.83;100.00
19236;BME280;9752;54.270;12.470;2023-02-15T22:28:11;102770.69;;;1.89;100.00
19236;BME280;9752;54.270;12.470;2023-02-15T22:33:21;102772.72;;;1.92;100.00
19236;BME280;9752;54.270;12.470;2023-02-15T22:38:25;102766.25;;;1.81;100.00
19236;BME280;9752;54.270;12.470;2023-02-15T22:43:33;102771.69;;;1.77;100.00
19236;BME280;9752;54.270;12.470;2023-02-15T22:48:35;102763.75;;;1.68;100.00
19236;BME280;9752;54.270;12.470;2023-02-15T22:53:38;102765.00;;;1.65;100.00
19236;BME280;9752;54.270;12.470;2023-02-15T22:58:40;102764.63;;;1.62;100.00
19236;BME280;9752;54.270;12.470;2023-02-15T23:03:43;102754.88;;;1.52;100.00
19236;BME280;9752;54.270;12.470;2023-02-15T23:08:46;102749.91;;;1.46;100.00
19236;BME280;9752;54.270;12.470;2023-02-15T23:13:48;102759.38;;;1.47;100.00
19236;BME280;9752;54.270;12.470;2023-02-15T23:18:50;102762.06;;;1.42;100.00
19236;BME280;9752;54.270;12.470;2023-02-15T23:23:55;102762.06;;;1.42;100.00
19236;BME280;9752;54.270;12.470;2023-02-15T23:28:58;102760.44;;;1.42;100.00
19236;BME280;9752;54.270;12.470;2023-02-15T23:34:16;102755.16;;;1.41;100.00
19236;BME280;9752;54.270;12.470;2023-02-15T23:39:22;102749.09;;;1.40;100.00
19236;BME280;9752;54.270;12.470;2023-02-15T23:44:42;102744.91;;;1.41;100.00
19236;BME280;9752;54.270;12.470;2023-02-15T23:49:45;102747.66;;;1.42;100.00
19236;BME280;9752;54.270;12.470;2023-02-15T23:54:48;102742.09;;;1.32;100.00
19236;BME280;9752;54.270;12.470;2023-02-15T23:59:49;102719.00;;;1.25;100.00
